Time;durP1;ratioP1;P1;durP2;ratioP2;P2;SDS_P1;SDS_P2;PMS_P1;PMS_P2;Temp;Humidity;BMP_temperature;BMP_pressure;BME280_temperature;BME280_humidity;BME280_pressure;Samples;Min_cycle;Max_cycle;Signal;HPM_P1;HPM_P2
2020/12/07 00:01:36;;;;;;;1.90;1.70;;;;;;;22.01;36.42;99695.25;4990593;28;96673;-48
2020/12/07 00:04:02;;;;;;;2.10;1.80;;;;;;;22.01;36.50;99681.97;4989234;28;117434;-48
2020/12/07 00:06:27;;;;;;;1.80;1.70;;;;;;;22.02;36.41;99688.13;4987202;28;127319;-48
2020/12/07 00:08:52;;;;;;;1.70;1.60;;;;;;;22.02;36.39;99682.81;4989589;28;97120;-48
2020/12/07 00:11:18;;;;;;;1.90;1.70;;;;;;;22.01;36.40;99681.09;4991711;28;117058;-48
2020/12/07 00:13:43;;;;;;;2.25;2.00;;;;;;;22.00;36.44;99688.22;4991715;28;96981;-48
2020/12/07 00:16:12;;;;;;;2.20;2.00;;;;;;;22.00;36.34;99688.22;4986343;28;126801;-48
2020/12/07 00:18:37;;;;;;;2.00;1.80;;;;;;;22.01;36.61;99678.44;4990471;28;97266;-48
2020/12/07 00:21:08;;;;;;;1.98;1.65;;;;;;;22.01;36.72;99678.44;4989157;28;101831;-48
2020/12/07 00:23:34;;;;;;;1.80;1.60;;;;;;;22.01;36.13;99666.06;5006707;28;96845;-48
2020/12/07 00:25:59;;;;;;;2.60;2.40;;;;;;;22.02;36.13;99669.56;4972584;28;97417;-48
2020/12/07 00:28:25;;;;;;;2.00;1.80;;;;;;;22.00;36.46;99664.31;4990368;28;126743;-48
2020/12/07 00:30:50;;;;;;;2.10;2.00;;;;;;;22.02;36.48;99664.25;4989090;28;117029;-48
2020/12/07 00:33:16;;;;;;;1.95;1.75;;;;;;;22.01;36.05;99671.34;4989437;28;96866;-48
2020/12/07 00:35:41;;;;;;;2.00;1.80;;;;;;;22.00;36.01;99664.31;4985949;28;127162;-48
2020/12/07 00:38:06;;;;;;;1.90;1.70;;;;;;;22.01;36.27;99660.75;4984311;28;126601;-48
2020/12/07 00:40:32;;;;;;;1.77;1.65;;;;;;;22.01;36.14;99654.53;4990545;28;96629;-48
2020/12/07 00:42:57;;;;;;;2.10;1.90;;;;;;;22.01;36.36;99663.41;4988015;28;116747;-48
2020/12/07 00:45:23;;;;;;;2.22;1.73;;;;;;;22.01;35.91;99667.81;4985045;28;100189;-48
2020/12/07 00:47:49;;;;;;;2.03;1.83;;;;;;;22.01;36.00;99671.34;4989123;28;97302;-48
2020/12/07 00:50:14;;;;;;;2.03;1.77;;;;;;;22.01;36.11;99674.00;4988239;28;97572;-48
2020/12/07 00:52:40;;;;;;;2.20;1.92;;;;;;;22.02;35.88;99688.13;4980786;28;97625;-48
2020/12/07 00:55:06;;;;;;;2.00;1.80;;;;;;;22.01;36.17;99687.28;4990445;28;99669;-48
2020/12/07 00:57:31;;;;;;;2.20;1.70;;;;;;;22.02;35.81;99693.44;4966168;28;99600;-48
2020/12/07 00:59:56;;;;;;;2.10;1.90;;;;;;;22.01;36.09;99683.75;4991414;28;96811;-48
2020/12/07 01:02:22;;;;;;;2.00;1.80;;;;;;;22.02;36.13;99677.53;4986991;28;96774;-48
2020/12/07 01:04:48;;;;;;;2.00;1.80;;;;;;;22.02;35.71;99683.69;4980585;28;127329;-48
2020/12/07 01:07:14;;;;;;;2.05;1.75;;;;;;;22.03;36.03;99695.16;4987978;28;98408;-48
2020/12/07 01:09:42;;;;;;;2.00;1.65;;;;;;;22.01;35.59;99697.91;4983090;28;96861;-48
2020/12/07 01:12:09;;;;;;;1.73;1.63;;;;;;;22.03;35.99;99692.50;4985191;28;96772;-48
2020/12/07 01:14:41;;;;;;;2.40;2.20;;;;;;;22.01;36.02;99687.28;4989574;28;97177;-48
2020/12/07 01:17:08;;;;;;;2.75;2.55;;;;;;;22.03;35.50;99681.88;4985305;28;99749;-48
2020/12/07 01:19:33;;;;;;;1.92;1.73;;;;;;;22.03;35.69;99679.22;4990138;28;97391;-48
2020/12/07 01:21:59;;;;;;;1.70;1.60;;;;;;;22.02;35.36;99681.03;4995982;28;96967;-48
2020/12/07 01:24:25;;;;;;;1.90;1.75;;;;;;;22.02;35.65;99667.75;4989229;28;99967;-48
2020/12/07 01:26:51;;;;;;;2.25;2.05;;;;;;;22.03;35.76;99673.91;4988009;28;97173;-48
2020/12/07 01:29:19;;;;;;;1.70;1.60;;;;;;;22.02;35.74;99662.44;4985192;28;96988;-48
2020/12/07 01:31:45;;;;;;;2.17;1.98;;;;;;;22.04;35.74;99662.34;4971388;28;96993;-48
2020/12/07 01:34:13;;;;;;;2.30;1.98;;;;;;;22.03;35.23;99645.56;4987692;28;97473;-48
2020/12/07 01:36:38;;;;;;;2.33;1.90;;;;;;;22.04;35.73;99651.75;4988820;28;96773;-48
2020/12/07 01:39:05;;;;;;;2.42;1.90;;;;;;;22.03;35.44;99653.53;4981250;28;96984;-48
2020/12/07 01:41:32;;;;;;;2.42;2.22;;;;;;;22.03;35.64;99653.53;4987697;28;97464;-48
2020/12/07 01:43:58;;;;;;;2.03;1.83;;;;;;;22.03;35.25;99648.22;4986216;28;100967;-48
2020/12/07 01:46:25;;;;;;;1.83;1.70;;;;;;;22.05;35.35;99661.44;4986174;28;99754;-48
2020/12/07 01:48:54;;;;;;;2.00;1.80;;;;;;;22.04;35.23;99651.75;4958203;28;97985;-48
2020/12/07 01:51:21;;;;;;;2.08;1.70;;;;;;;22.03;35.23;99642.94;4976484;28;96971;-48
2020/12/07 01:53:46;;;;;;;2.05;1.73;;;;;;;22.04;35.31;99641.97;4994419;28;98701;-48
2020/12/07 01:56:14;;;;;;;2.10;1.83;;;;;;;22.03;35.09;99645.56;4971436;28;98459;-48
2020/12/07 01:58:41;;;;;;;2.33;2.00;;;;;;;22.03;35.39;99644.69;4987890;28;99841;-48
2020/12/07 02:01:07;;;;;;;2.00;1.80;;;;;;;22.03;35.25;99650.88;4987410;28;97655;-48
2020/12/07 02:03:33;;;;;;;2.17;1.80;;;;;;;22.04;35.27;99649.94;4989460;28;97454;-48
2020/12/07 02:05:58;;;;;;;2.30;2.10;;;;;;;22.03;35.42;99642.94;4997085;28;98853;-48
2020/12/07 02:08:24;;;;;;;1.90;1.67;;;;;;;22.03;35.25;99640.25;4991180;28;97305;-48
2020/12/07 02:11:02;;;;;;;1.85;1.70;;;;;;;22.03;34.92;99637.63;4997836;28;96944;-48
2020/12/07 02:13:29;;;;;;;2.20;1.60;;;;;;;22.03;35.24;99631.41;4990029;28;100028;-48
2020/12/07 02:15:56;;;;;;;2.00;1.80;;;;;;;22.03;35.21;99628.75;5006154;28;99663;-48
2020/12/07 02:18:26;;;;;;;1.95;1.60;;;;;;;22.03;35.09;99620.81;4989676;28;96659;-48
2020/12/07 02:20:54;;;;;;;2.00;1.80;;;;;;;22.02;34.93;99616.44;4976078;28;96696;-48
2020/12/07 02:23:39;;;;;;;1.60;1.50;;;;;;;22.01;34.87;99615.59;4981690;28;98552;-48
2020/12/07 02:26:13;;;;;;;1.95;1.70;;;;;;;22.02;35.03;99595.22;4988865;28;97622;-48
2020/12/07 02:28:39;;;;;;;1.92;1.65;;;;;;;22.02;34.78;99603.19;4991529;28;97202;-48
2020/12/07 02:31:05;;;;;;;2.15;1.67;;;;;;;22.03;34.76;99604.88;4990652;28;97057;-48
2020/12/07 02:33:34;;;;;;;1.85;1.65;;;;;;;22.01;34.71;99599.66;4988671;28;99395;-48
2020/12/07 02:35:59;;;;;;;2.10;1.90;;;;;;;22.01;34.81;99594.38;4975821;28;98559;-48
2020/12/07 02:38:25;;;;;;;1.88;1.77;;;;;;;22.02;34.77;99593.41;4989914;28;96762;-48
2020/12/07 02:40:52;;;;;;;1.77;1.55;;;;;;;22.03;35.04;99592.47;4992986;28;96930;-48
2020/12/07 02:43:17;;;;;;;1.80;1.67;;;;;;;22.04;34.93;99583.56;4982780;28;97246;-48
2020/12/07 02:45:44;;;;;;;1.50;1.40;;;;;;;22.04;34.63;99588.00;4992208;28;99503;-48
2020/12/07 02:48:13;;;;;;;1.77;1.52;;;;;;;22.05;34.63;99581.78;4990919;28;96955;-48
2020/12/07 02:50:41;;;;;;;1.80;1.70;;;;;;;22.04;34.69;99574.75;4990955;28;97221;-48
2020/12/07 02:53:11;;;;;;;2.13;1.52;;;;;;;22.04;34.43;99567.63;4993440;28;100495;-48
2020/12/07 02:55:39;;;;;;;2.47;1.77;;;;;;;22.04;34.53;99570.28;5009248;28;97706;-48
2020/12/07 02:58:05;;;;;;;2.78;1.50;;;;;;;22.04;34.38;99564.97;5000198;28;96762;-48
2020/12/07 03:00:31;;;;;;;1.73;1.63;;;;;;;22.06;34.71;99562.22;5079508;22;97058;-44
2020/12/07 03:02:57;;;;;;;1.77;1.63;;;;;;;22.05;34.78;99560.53;5024637;27;98793;-44
2020/12/07 03:05:26;;;;;;;1.90;1.65;;;;;;;22.04;34.47;99556.16;5050667;27;99328;-45
2020/12/07 03:07:53;;;;;;;1.67;1.58;;;;;;;22.04;34.62;99543.72;5050869;27;97388;-45
2020/12/07 03:10:20;;;;;;;1.83;1.70;;;;;;;22.05;34.39;99539.28;5016804;27;96666;-44
2020/12/07 03:12:49;;;;;;;1.67;1.52;;;;;;;22.05;34.63;99544.59;5026826;27;99614;-45
2020/12/07 03:15:19;;;;;;;1.60;1.50;;;;;;;22.04;34.33;99549.03;5033356;27;98560;-45
2020/12/07 03:17:46;;;;;;;1.80;1.70;;;;;;;22.04;34.44;99551.69;5043198;27;96792;-45
2020/12/07 03:20:13;;;;;;;1.50;1.33;;;;;;;22.04;34.57;99546.38;5010951;27;96879;-44
2020/12/07 03:22:38;;;;;;;1.65;1.50;;;;;;;22.05;34.40;99552.56;5031450;27;100232;-45
2020/12/07 03:25:04;;;;;;;2.03;1.60;;;;;;;22.05;34.27;99549.91;5025540;27;98381;-45
2020/12/07 03:27:33;;;;;;;1.60;1.50;;;;;;;22.05;34.44;99544.59;5031197;27;96778;-44
2020/12/07 03:30:00;;;;;;;1.80;1.70;;;;;;;22.05;34.46;99540.13;5012712;27;96835;-44
2020/12/07 03:32:28;;;;;;;1.65;1.55;;;;;;;22.04;34.45;99546.38;5033211;27;97451;-44
2020/12/07 03:34:54;;;;;;;1.90;1.60;;;;;;;22.04;34.44;99541.06;5045527;27;97268;-44
2020/12/07 03:37:20;;;;;;;1.60;1.40;;;;;;;22.04;34.18;99542.88;5026699;27;96779;-45
2020/12/07 03:39:51;;;;;;;1.67;1.58;;;;;;;22.04;34.27;99540.22;5022818;27;96886;-44
2020/12/07 03:42:17;;;;;;;2.20;1.60;;;;;;;22.04;34.33;99542.88;5029238;27;99796;-44
2020/12/07 03:44:43;;;;;;;1.90;1.67;;;;;;;22.04;34.02;99542.88;5032141;27;97464;-45
2020/12/07 03:47:10;;;;;;;1.85;1.40;;;;;;;22.04;34.14;99542.88;5031238;27;96735;-44
2020/12/07 03:49:36;;;;;;;1.95;1.75;;;;;;;22.04;34.21;99541.06;5034993;27;96809;-44
2020/12/07 03:52:02;;;;;;;1.90;1.52;;;;;;;22.04;34.37;99553.50;5034304;27;97882;-45
2020/12/07 03:54:29;;;;;;;1.60;1.50;;;;;;;22.04;34.10;99549.03;5032510;27;97235;-45
2020/12/07 03:56:55;;;;;;;1.60;1.50;;;;;;;22.04;34.20;99553.50;5033769;27;97099;-45
2020/12/07 03:59:21;;;;;;;1.52;1.42;;;;;;;22.04;34.21;99557.00;5015834;27;96833;-44
2020/12/07 04:01:48;;;;;;;2.00;1.58;;;;;;;22.05;33.99;99560.53;5032809;27;100281;-44
2020/12/07 04:04:17;;;;;;;1.60;1.45;;;;;;;22.05;34.01;99564.03;5034952;27;97350;-44
2020/12/07 04:06:44;;;;;;;1.60;1.50;;;;;;;22.04;34.11;99562.31;5030953;27;96821;-44
2020/12/07 04:09:14;;;;;;;1.55;1.42;;;;;;;22.05;34.19;99571.16;5032670;27;96958;-45
2020/12/07 04:11:39;;;;;;;1.90;1.35;;;;;;;22.04;33.92;99578.25;5030648;27;126181;-44
2020/12/07 04:14:05;;;;;;;1.90;1.70;;;;;;;22.05;33.84;99582.63;5052635;27;105546;-44
2020/12/07 04:16:30;;;;;;;1.75;1.40;;;;;;;22.05;34.04;99581.78;5048993;27;96659;-44
2020/12/07 04:18:56;;;;;;;1.70;1.48;;;;;;;22.05;34.20;99579.13;5049215;27;96730;-44
2020/12/07 04:21:21;;;;;;;1.90;1.48;;;;;;;22.06;34.10;99576.34;5042044;27;126877;-44
2020/12/07 04:23:46;;;;;;;1.77;1.52;;;;;;;22.05;33.96;99566.69;5033840;27;119783;-44
2020/12/07 04:26:12;;;;;;;1.60;1.40;;;;;;;22.06;33.93;99560.41;5049186;27;96633;-45
2020/12/07 04:28:37;;;;;;;1.90;1.70;;;;;;;22.06;33.93;99568.38;5047303;27;97868;-45
2020/12/07 04:31:03;;;;;;;2.15;1.48;;;;;;;22.05;33.85;99553.41;5051793;27;97842;-44
2020/12/07 04:33:28;;;;;;;1.67;1.33;;;;;;;22.06;33.79;99547.16;5046558;27;121720;-44
2020/12/07 04:35:54;;;;;;;1.95;1.80;;;;;;;22.06;34.13;99541.84;5032529;27;96859;-44
2020/12/07 04:38:19;;;;;;;1.40;1.30;;;;;;;22.06;33.86;99549.81;5050940;27;117004;-44
2020/12/07 04:40:44;;;;;;;1.92;1.75;;;;;;;22.05;33.64;99542.78;5049979;27;97448;-44
2020/12/07 04:43:10;;;;;;;1.58;1.48;;;;;;;22.06;33.78;99544.50;5049586;27;127121;-44
2020/12/07 04:45:35;;;;;;;1.55;1.40;;;;;;;22.08;33.88;99546.22;5017725;27;96802;-45
2020/12/07 04:48:01;;;;;;;1.42;1.30;;;;;;;22.06;33.67;99531.22;5047244;27;116094;-45
2020/12/07 04:50:29;;;;;;;1.70;1.50;;;;;;;22.06;33.91;99531.22;5025131;27;98029;-45
2020/12/07 04:52:55;;;;;;;1.58;1.45;;;;;;;22.06;33.80;99515.28;5044859;27;97362;-45
2020/12/07 04:55:21;;;;;;;1.25;1.15;;;;;;;22.06;33.62;99515.28;5041699;27;98568;-44
2020/12/07 04:57:46;;;;;;;1.45;1.35;;;;;;;22.06;33.66;99520.59;5042788;27;117699;-44
2020/12/07 05:00:11;;;;;;;1.30;1.20;;;;;;;22.07;33.42;99521.47;5013779;27;128445;-45
2020/12/07 05:02:37;;;;;;;1.33;1.10;;;;;;;22.06;33.48;99515.28;5027796;27;124665;-44
2020/12/07 05:05:06;;;;;;;1.55;1.27;;;;;;;22.08;33.48;99519.66;5027945;27;96835;-44
2020/12/07 05:07:33;;;;;;;1.30;1.20;;;;;;;22.06;33.88;99520.59;5044355;27;96751;-45
2020/12/07 05:09:58;;;;;;;1.73;1.63;;;;;;;22.06;33.47;99531.22;5043768;27;97495;-45
2020/12/07 05:12:33;;;;;;;1.63;1.52;;;;;;;22.07;33.42;99521.47;5045245;27;97130;-44
2020/12/07 05:14:59;;;;;;;1.60;1.40;;;;;;;22.05;33.75;99508.28;5052459;27;96698;-44
2020/12/07 05:17:24;;;;;;;1.35;1.10;;;;;;;22.06;33.42;99509.97;5041333;27;116750;-44
2020/12/07 05:19:50;;;;;;;1.80;1.65;;;;;;;22.06;33.88;99504.66;5046937;27;97546;-44
2020/12/07 05:22:16;;;;;;;1.83;1.30;;;;;;;22.05;33.41;99496.81;5049054;27;126497;-44
2020/12/07 05:24:42;;;;;;;1.50;1.40;;;;;;;22.07;33.27;99494.91;5016891;27;96963;-45
2020/12/07 05:27:08;;;;;;;1.50;1.40;;;;;;;22.06;33.42;99488.72;5055866;27;96764;-44
2020/12/07 05:29:43;;;;;;;1.33;1.20;;;;;;;22.06;33.65;99488.72;5046260;27;106880;-45
2020/12/07 05:32:08;;;;;;;1.70;1.50;;;;;;;22.05;33.69;99484.38;5037593;27;97307;-45
2020/12/07 05:34:34;;;;;;;1.58;1.48;;;;;;;22.06;33.28;99482.56;5032132;27;116367;-45
2020/12/07 05:36:59;;;;;;;1.52;1.10;;;;;;;22.05;33.67;99484.38;5032185;27;96761;-44
2020/12/07 05:39:26;;;;;;;1.70;1.60;;;;;;;22.06;33.38;99496.69;5048101;27;126886;-45
2020/12/07 05:41:54;;;;;;;1.60;1.45;;;;;;;22.07;33.26;99508.19;5045809;27;97261;-44
2020/12/07 05:44:20;;;;;;;1.58;1.48;;;;;;;22.07;33.58;99516.16;5015990;27;118039;-44
2020/12/07 05:46:46;;;;;;;1.42;1.30;;;;;;;22.07;33.21;99532.09;5029339;27;111060;-44
2020/12/07 05:49:11;;;;;;;1.55;1.40;;;;;;;22.07;33.36;99545.38;5014510;27;97424;-44
2020/12/07 05:51:37;;;;;;;1.40;1.30;;;;;;;22.06;33.40;99544.50;5000125;27;97315;-44
2020/12/07 05:54:02;;;;;;;1.40;1.30;;;;;;;22.07;33.52;99542.72;5012628;27;102767;-45
2020/12/07 05:56:28;;;;;;;1.40;1.30;;;;;;;22.07;33.40;99542.72;5026581;27;114089;-45
2020/12/07 05:59:12;;;;;;;1.63;1.42;;;;;;;22.07;33.59;99548.03;5031470;27;97478;-44
2020/12/07 06:01:37;;;;;;;;;;;;;;;22.02;33.41;99548.25;5036905;27;97889;-44
2020/12/07 06:04:03;;;;;;;1.52;1.30;;;;;;;22.04;33.27;99558.81;5033898;27;117203;-45
2020/12/07 06:06:35;;;;;;;1.60;1.40;;;;;;;22.04;33.17;99559.66;5029259;27;116438;-45
2020/12/07 06:09:19;;;;;;;1.33;1.17;;;;;;;22.04;33.47;99558.81;5044780;27;97421;-44
2020/12/07 06:11:48;;;;;;;1.40;1.27;;;;;;;22.05;33.52;99563.19;5034977;27;97384;-45
2020/12/07 06:14:13;;;;;;;1.50;1.40;;;;;;;22.05;33.26;99558.72;5027710;27;96635;-45
2020/12/07 06:16:42;;;;;;;1.25;1.10;;;;;;;22.07;33.04;99556.00;5026598;27;116686;-45
2020/12/07 06:19:14;;;;;;;1.30;1.20;;;;;;;22.06;33.51;99549.81;5031786;27;110467;-44
2020/12/07 06:22:00;;;;;;;1.40;1.10;;;;;;;22.05;33.32;99550.75;5051841;27;97312;-44
2020/12/07 06:24:41;;;;;;;1.20;1.10;;;;;;;22.05;33.08;99549.91;5047596;27;96802;-44
2020/12/07 06:27:08;;;;;;;1.50;1.23;;;;;;;22.05;33.22;99547.25;5046828;27;97153;-44
2020/12/07 06:29:34;;;;;;;1.25;1.10;;;;;;;22.06;33.02;99547.16;5006264;27;97471;-44
2020/12/07 06:31:59;;;;;;;1.30;1.20;;;;;;;22.07;33.06;99542.72;5050116;27;97365;-44
2020/12/07 06:34:38;;;;;;;1.20;1.00;;;;;;;22.05;33.49;99537.47;5039395;27;118042;-45
2020/12/07 06:37:06;;;;;;;1.25;1.13;;;;;;;22.08;33.26;99532.94;5045241;27;96697;-44
2020/12/07 06:39:45;;;;;;;1.42;1.30;;;;;;;22.05;33.30;99532.16;5027283;27;112420;-44
2020/12/07 06:42:11;;;;;;;1.48;1.00;;;;;;;22.05;32.94;99526.88;5030405;27;127233;-44
2020/12/07 06:44:44;;;;;;;1.40;1.10;;;;;;;22.07;33.26;99534.75;5047756;27;96703;-44
2020/12/07 06:47:15;;;;;;;1.30;1.20;;;;;;;22.06;33.21;99520.59;5041074;27;97226;-44
2020/12/07 06:52:18;;;;;;;1.92;1.20;;;;;;;22.06;33.26;99515.28;5044445;27;97288;-44
2020/12/07 06:55:08;;;;;;;1.50;1.30;;;;;;;22.05;33.22;99523.34;5049286;27;96756;-44
2020/12/07 06:57:41;;;;;;;1.23;1.10;;;;;;;22.04;33.26;99527.78;5027121;27;96847;-45
2020/12/07 07:00:20;;;;;;;1.27;1.17;;;;;;;22.04;33.04;99534.91;5049060;27;97435;-45
2020/12/07 07:02:56;;;;;;;1.30;1.20;;;;;;;22.04;33.24;99535.75;5049911;27;97236;-44
2020/12/07 07:05:26;;;;;;;1.50;1.20;;;;;;;22.04;33.13;99532.25;5046586;27;96693;-44
2020/12/07 07:07:52;;;;;;;1.20;1.10;;;;;;;22.05;32.90;99526.88;5040516;27;96839;-45
2020/12/07 07:10:17;;;;;;;1.27;1.17;;;;;;;22.05;32.87;99534.81;5042162;27;104782;-45
2020/12/07 07:12:43;;;;;;;1.45;1.35;;;;;;;22.05;33.12;99542.78;5046786;27;115948;-44
2020/12/07 07:15:10;;;;;;;1.30;1.20;;;;;;;22.06;32.77;99547.16;5053103;27;97186;-44
2020/12/07 07:17:37;;;;;;;1.50;1.15;;;;;;;22.07;32.76;99548.03;5032110;27;110783;-45
2020/12/07 07:20:07;;;;;;;1.20;1.10;;;;;;;22.08;33.09;99548.88;5043045;27;97479;-44
2020/12/07 07:22:33;;;;;;;1.48;1.30;;;;;;;22.08;32.66;99549.72;5052893;27;97228;-44
2020/12/07 07:30:16;;;;;;;1.67;1.30;;;;;;;22.08;32.80;99551.53;5044910;27;97643;-44
2020/12/07 07:32:46;;;;;;;1.27;1.13;;;;;;;22.07;32.86;99550.69;5048613;27;98410;-45
2020/12/07 07:35:13;;;;;;;1.30;1.17;;;;;;;22.08;32.82;99544.41;5042344;27;96970;-45
2020/12/07 07:37:40;;;;;;;2.47;1.10;;;;;;;22.09;32.98;99550.59;5047382;27;96692;-42
2020/12/07 07:40:25;;;;;;;1.40;1.30;;;;;;;22.08;32.92;99555.03;5048632;27;98156;-42
2020/12/07 07:42:55;;;;;;;1.40;1.20;;;;;;;22.10;32.86;99549.63;5051746;27;97239;-42
2020/12/07 07:45:25;;;;;;;1.92;1.38;;;;;;;22.10;32.94;99565.56;5035962;27;97275;-42
2020/12/07 07:47:56;;;;;;;1.35;1.25;;;;;;;22.10;32.99;99554.94;5050666;27;96830;-42
2020/12/07 08:12:43;;;;;;;1.80;1.40;;;;;;;22.08;32.61;99586.91;5004071;28;97418;-42
2020/12/07 08:17:24;;;;;;;1.58;1.30;;;;;;;22.09;32.82;99599.25;5043956;27;96726;-42
2020/12/07 08:19:52;;;;;;;2.20;1.38;;;;;;;22.10;32.79;99595.63;5041449;27;116189;-42
2020/12/07 08:22:18;;;;;;;2.42;2.22;;;;;;;22.11;32.52;99605.31;5034984;27;98511;-42
2020/12/07 08:25:02;;;;;;;2.28;1.30;;;;;;;22.11;32.47;99601.81;5025592;27;97832;-42
2020/12/07 08:27:34;;;;;;;1.75;1.55;;;;;;;22.11;32.73;99605.31;5042900;27;97296;-42
2020/12/07 08:30:09;;;;;;;1.52;1.27;;;;;;;22.12;32.41;99612.34;5040217;27;96734;-42
2020/12/07 08:32:34;;;;;;;1.65;1.38;;;;;;;22.13;32.79;99607.91;5022632;27;127057;-42
2020/12/07 08:35:10;;;;;;;1.88;1.35;;;;;;;22.12;32.56;99612.34;5023916;27;105602;-42
2020/12/07 08:37:42;;;;;;;1.77;1.58;;;;;;;22.12;32.34;99615.00;5019522;27;98492;-42
2020/12/07 08:40:08;;;;;;;1.83;1.52;;;;;;;22.13;32.22;99622.03;5030551;27;109648;-42
2020/12/07 08:42:33;;;;;;;2.58;1.40;;;;;;;22.14;32.23;99612.25;5037315;27;97456;-42
2020/12/07 08:44:59;;;;;;;1.90;1.40;;;;;;;22.14;32.72;99614.91;5037711;27;98408;-42
2020/12/07 08:47:24;;;;;;;1.73;1.50;;;;;;;22.14;32.41;99620.22;5052055;27;96589;-42
2020/12/07 08:49:50;;;;;;;2.15;1.60;;;;;;;22.14;32.15;99621.09;5053241;27;116727;-42
2020/12/07 08:52:15;;;;;;;1.83;1.40;;;;;;;22.14;32.72;99621.09;5052410;27;128364;-42
2020/12/07 08:54:42;;;;;;;1.88;1.63;;;;;;;22.15;32.46;99628.09;5050107;27;127962;-42
2020/12/07 08:57:07;;;;;;;2.17;1.60;;;;;;;22.15;32.46;99625.44;5053184;27;103387;-42
2020/12/07 08:59:32;;;;;;;2.30;1.95;;;;;;;22.16;32.50;99626.31;5034858;27;116571;-41
2020/12/07 09:01:58;;;;;;;1.88;1.67;;;;;;;22.16;32.37;99628.97;5035945;22;121136;-52
2020/12/07 09:04:23;;;;;;;2.55;1.85;;;;;;;22.16;32.58;99629.81;5008783;28;126443;-53
2020/12/07 09:06:52;;;;;;;2.10;1.88;;;;;;;22.16;32.54;99627.16;4989547;28;119085;-51
2020/12/07 09:09:18;;;;;;;2.40;1.92;;;;;;;22.18;32.18;99641.22;4997144;28;96764;-53
2020/12/07 09:11:45;;;;;;;2.65;1.98;;;;;;;22.21;32.25;99632.22;4993206;28;97631;-55
2020/12/07 09:14:11;;;;;;;3.08;2.15;;;;;;;22.36;32.87;99635.88;4997387;28;98250;-55
2020/12/07 09:16:37;;;;;;;2.75;2.30;;;;;;;22.49;32.40;99646.66;5003008;28;96752;-44
2020/12/07 09:19:02;;;;;;;2.97;2.10;;;;;;;22.53;32.44;99654.41;5005451;28;96941;-44
2020/12/07 09:21:28;;;;;;;2.72;2.10;;;;;;;22.55;32.10;99659.59;5000582;28;97484;-45
2020/12/07 09:23:53;;;;;;;3.13;2.35;;;;;;;22.56;32.11;99661.31;5009673;28;97147;-44
2020/12/07 09:26:19;;;;;;;3.53;2.55;;;;;;;22.57;32.12;99669.22;5008775;28;112576;-44
2020/12/07 09:28:44;;;;;;;3.25;2.30;;;;;;;22.58;31.95;99670.06;5006235;28;116728;-44
2020/12/07 09:31:10;;;;;;;4.53;2.33;;;;;;;22.58;32.18;99673.59;5008786;28;97536;-44
2020/12/07 09:33:35;;;;;;;4.18;2.50;;;;;;;22.60;31.76;99670.81;5012359;28;97168;-44
2020/12/07 09:36:01;;;;;;;4.18;2.78;;;;;;;22.61;31.92;99669.91;5004214;28;111680;-44
2020/12/07 09:38:27;;;;;;;3.67;2.60;;;;;;;22.60;32.11;99674.38;5011475;28;96815;-45
2020/12/07 09:40:53;;;;;;;3.47;2.80;;;;;;;22.61;31.85;99673.41;5011003;28;101579;-44
2020/12/07 09:43:18;;;;;;;4.07;2.65;;;;;;;22.61;32.11;99673.41;5004763;28;97217;-44
2020/12/07 09:45:44;;;;;;;3.40;2.67;;;;;;;22.61;31.97;99673.41;5004311;28;96817;-44
2020/12/07 09:48:09;;;;;;;3.90;2.70;;;;;;;22.63;31.91;99675.97;4994261;28;116993;-44
2020/12/07 09:50:36;;;;;;;3.20;2.63;;;;;;;22.63;31.64;99670.66;5009714;28;127010;-44
2020/12/07 09:53:02;;;;;;;4.47;2.60;;;;;;;22.63;31.91;99673.31;5002057;28;126765;-44
2020/12/07 09:55:27;;;;;;;4.30;3.03;;;;;;;22.63;31.93;99668.84;5003518;28;96783;-44
2020/12/07 09:57:53;;;;;;;3.88;2.90;;;;;;;22.63;31.67;99668.00;5012716;28;96581;-44
2020/12/07 10:00:18;;;;;;;3.92;2.97;;;;;;;22.63;31.70;99673.31;5010244;28;97368;-45
2020/12/07 10:02:44;;;;;;;4.40;3.03;;;;;;;22.63;31.45;99676.81;5006867;28;124070;-44
2020/12/07 10:05:09;;;;;;;3.83;2.83;;;;;;;22.65;31.80;99684.72;5010311;28;96855;-44
2020/12/07 10:07:35;;;;;;;4.70;3.05;;;;;;;22.64;31.77;99677.72;5007132;28;116785;-45
2020/12/07 10:10:01;;;;;;;4.10;3.10;;;;;;;22.65;31.44;99678.56;5010829;28;97564;-44
2020/12/07 10:12:26;;;;;;;4.05;3.10;;;;;;;22.65;31.56;99682.06;5010665;28;126588;-44
2020/12/07 10:14:51;;;;;;;4.50;3.20;;;;;;;22.66;31.63;99682.94;5011538;28;116960;-45
2020/12/07 10:17:17;;;;;;;4.18;3.10;;;;;;;22.65;31.25;99684.72;5009467;28;105673;-44
2020/12/07 10:19:42;;;;;;;3.90;3.30;;;;;;;22.66;31.71;99688.25;5009932;28;126864;-44
2020/12/07 10:22:08;;;;;;;5.22;3.58;;;;;;;22.67;31.28;99692.59;5014879;28;97169;-44
2020/12/07 10:24:34;;;;;;;3.65;3.15;;;;;;;22.67;31.34;99692.59;5013639;28;96850;-44
2020/12/07 10:26:59;;;;;;;4.28;3.40;;;;;;;22.68;31.41;99697.00;5015345;28;96762;-45
2020/12/07 10:29:25;;;;;;;6.03;3.90;;;;;;;22.67;31.34;99692.59;5013338;28;97328;-44
2020/12/07 10:31:50;;;;;;;4.60;3.35;;;;;;;22.68;31.25;99694.34;5013477;28;99547;-45
2020/12/07 10:34:16;;;;;;;4.18;3.30;;;;;;;22.66;31.22;99697.06;5014026;28;96892;-44
2020/12/07 10:36:47;;;;;;;4.47;3.60;;;;;;;22.67;31.16;99700.59;5014961;28;116748;-44
2020/12/07 10:39:13;;;;;;;5.03;3.92;;;;;;;22.67;31.25;99701.44;5011821;28;103125;-44
2020/12/07 10:41:38;;;;;;;5.10;3.80;;;;;;;22.68;31.31;99700.50;5013608;28;100911;-44
2020/12/07 10:44:04;;;;;;;4.40;3.67;;;;;;;22.68;30.80;99699.66;5012895;28;117858;-44
2020/12/07 10:46:29;;;;;;;4.72;3.67;;;;;;;22.69;31.30;99706.66;5014394;28;117585;-44
2020/12/07 10:48:55;;;;;;;5.63;4.25;;;;;;;22.69;31.48;99710.19;4996185;28;127526;-44
2020/12/07 10:51:20;;;;;;;4.40;3.47;;;;;;;22.70;31.04;99709.25;5011383;28;126707;-45
2020/12/07 10:53:46;;;;;;;5.65;4.13;;;;;;;22.70;31.17;99711.91;5005358;28;117616;-44
2020/12/07 10:56:13;;;;;;;4.75;3.92;;;;;;;22.70;31.13;99717.22;5011747;28;96646;-45
2020/12/07 10:58:39;;;;;;;5.18;4.15;;;;;;;22.71;31.15;99715.41;4995998;28;98615;-44
2020/12/07 11:01:06;;;;;;;4.72;3.95;;;;;;;22.71;31.11;99729.56;5005310;28;124885;-44
2020/12/07 11:03:32;;;;;;;4.95;4.00;;;;;;;22.72;31.38;99717.97;5003537;28;97183;-44
2020/12/07 11:05:57;;;;;;;5.28;4.40;;;;;;;22.73;30.95;99724.19;5008777;28;102267;-44
2020/12/07 11:08:35;;;;;;;5.65;4.25;;;;;;;22.73;31.07;99713.56;5012023;28;97357;-44
2020/12/07 11:11:00;;;;;;;5.38;4.32;;;;;;;22.71;31.10;99721.59;5000047;28;97330;-44
2020/12/07 11:13:31;;;;;;;5.00;3.83;;;;;;;22.73;31.12;99721.53;5012023;28;96885;-44
2020/12/07 11:16:00;;;;;;;5.07;4.25;;;;;;;22.73;31.21;99726.84;5005993;28;96763;-44
2020/12/07 11:18:27;;;;;;;6.55;4.22;;;;;;;22.72;31.01;99720.63;5015001;28;97567;-45
2020/12/07 11:20:52;;;;;;;4.85;4.13;;;;;;;22.71;31.11;99716.28;5013783;28;104052;-45
2020/12/07 11:23:20;;;;;;;5.03;3.90;;;;;;;22.73;30.93;99718.88;5014715;28;96681;-44
2020/12/07 11:25:45;;;;;;;4.90;4.05;;;;;;;22.74;31.20;99723.22;5014765;28;96700;-44
2020/12/07 11:28:11;;;;;;;4.95;3.85;;;;;;;22.73;30.90;99710.88;5013231;28;97452;-44
2020/12/07 11:30:36;;;;;;;5.18;4.13;;;;;;;22.74;31.15;99709.94;5012755;28;126617;-44
2020/12/07 11:33:02;;;;;;;4.68;3.97;;;;;;;22.73;30.88;99711.75;5013983;28;96842;-44
2020/12/07 11:35:27;;;;;;;4.90;3.75;;;;;;;22.73;31.26;99714.41;5010441;28;117691;-44
2020/12/07 11:37:59;;;;;;;4.97;3.88;;;;;;;22.74;30.74;99718.75;4998713;28;97545;-44
2020/12/07 11:41:15;;;;;;;5.85;3.80;;;;;;;22.74;31.21;99713.44;5002939;28;97279;-44
2020/12/07 11:45:57;;;;;;;4.82;4.00;;;;;;;22.73;31.19;99722.38;5000818;28;97172;-44
2020/12/07 11:48:22;;;;;;;5.38;3.90;;;;;;;22.74;30.95;99718.75;4995584;28;97237;-44
2020/12/07 11:50:47;;;;;;;5.00;4.32;;;;;;;22.74;31.09;99712.59;4994361;28;126902;-44
2020/12/07 11:53:13;;;;;;;4.95;4.20;;;;;;;22.75;30.81;99720.47;5013686;28;97102;-44
2020/12/07 11:55:40;;;;;;;5.28;4.00;;;;;;;22.74;30.77;99720.56;5011087;28;96719;-44
2020/12/07 11:58:05;;;;;;;4.47;3.70;;;;;;;22.74;31.15;99723.22;4998727;28;97364;-45
2020/12/07 12:00:30;;;;;;;4.80;3.80;;;;;;;22.74;31.12;99724.06;4997972;28;105209;-44
2020/12/07 12:02:56;;;;;;;6.07;4.03;;;;;;;22.74;31.14;99728.53;4994823;28;98141;-44
2020/12/07 12:05:21;;;;;;;4.75;3.90;;;;;;;22.74;30.81;99734.69;4996943;28;116654;-44
2020/12/07 12:07:47;;;;;;;4.47;3.58;;;;;;;22.76;30.83;99731.97;4995327;28;97504;-45